Time;durP1;ratioP1;P1;durP2;ratioP2;P2;SDS_P1;SDS_P2;PMS_P1;PMS_P2;Temp;Humidity;BMP_temperature;BMP_pressure;BME280_temperature;BME280_humidity;BME280_pressure;Samples;Min_cycle;Max_cycle;Signal;HPM_P1;HPM_P2
2021/08/21 00:00:19;;;;;;;8.15;5.68;;;;;;;20.45;100.00;96529.16;4955034;28;20508;-50
2021/08/21 00:02:47;;;;;;;8.10;5.25;;;;;;;20.66;100.00;96530.81;4945236;28;20523;-51
2021/08/21 00:05:16;;;;;;;10.45;5.07;;;;;;;20.20;100.00;96520.88;4951305;28;20078;-51
2021/08/21 00:07:44;;;;;;;8.15;5.10;;;;;;;20.40;100.00;96526.25;4945951;28;20090;-48
2021/08/21 00:10:14;;;;;;;5.95;5.15;;;;;;;20.50;100.00;96525.84;4950904;28;20203;-49
2021/08/21 00:12:43;;;;;;;7.97;5.45;;;;;;;20.45;100.00;96522.97;4948481;28;20074;-52
2021/08/21 00:15:14;;;;;;;7.63;5.40;;;;;;;20.27;100.00;96521.72;4953488;28;20070;-49
2021/08/21 00:17:42;;;;;;;6.18;5.05;;;;;;;20.09;100.00;96511.56;4953967;28;20066;-53
2021/08/21 00:20:11;;;;;;;6.60;5.43;;;;;;;19.54;100.00;96512.59;4950848;28;20083;-52
2021/08/21 00:22:39;;;;;;;6.85;5.38;;;;;;;19.94;100.00;96505.56;4949553;28;20087;-49
2021/08/21 00:25:09;;;;;;;6.43;5.45;;;;;;;20.04;100.00;96507.88;4948237;28;20543;-47
2021/08/21 00:27:38;;;;;;;8.70;6.20;;;;;;;19.79;100.00;96507.59;4950469;28;20074;-50
2021/08/21 00:30:09;;;;;;;14.27;8.77;;;;;;;20.13;100.00;96512.84;4949630;28;20087;-51
2021/08/21 00:32:38;;;;;;;9.23;7.32;;;;;;;20.17;100.00;96504.41;4947436;28;20071;-47
2021/08/21 00:35:08;;;;;;;10.52;6.47;;;;;;;20.10;100.00;96507.06;4952187;28;20082;-51
2021/08/21 00:37:36;;;;;;;11.15;7.05;;;;;;;20.17;100.00;96507.91;4946780;28;20082;-53
2021/08/21 00:40:06;;;;;;;8.85;5.80;;;;;;;19.89;100.00;96506.19;4944008;28;20067;-52
2021/08/21 00:42:36;;;;;;;5.38;4.70;;;;;;;18.98;100.00;96516.22;4949698;28;20079;-50
2021/08/21 00:45:05;;;;;;;6.43;5.28;;;;;;;19.49;100.00;96509.72;4950264;28;20074;-51
2021/08/21 00:47:34;;;;;;;6.80;5.18;;;;;;;19.77;100.00;96510.47;4946823;28;20074;-48
2021/08/21 00:50:04;;;;;;;6.43;5.68;;;;;;;19.53;100.00;96513.63;4953964;28;20102;-51
2021/08/21 00:52:34;;;;;;;11.43;6.75;;;;;;;19.38;100.00;96511.13;4947623;28;20537;-50
2021/08/21 00:55:03;;;;;;;9.32;6.63;;;;;;;19.34;100.00;96507.16;4945554;28;21767;-49
2021/08/21 00:57:32;;;;;;;8.23;7.20;;;;;;;19.76;100.00;96505.31;4946954;28;20073;-48
2021/08/21 01:00:00;;;;;;;8.52;6.78;;;;;;;19.37;100.00;96506.78;4949736;28;20067;-52
2021/08/21 01:02:31;;;;;;;7.93;5.88;;;;;;;19.13;100.00;96500.91;4947200;28;20077;-48
2021/08/21 01:05:01;;;;;;;;;;;;;;;19.37;100.00;96502.28;4953317;28;20079;-50
2021/08/21 01:07:30;;;;;;;8.30;5.95;;;;;;;19.68;100.00;96492.94;4948173;28;19980;-53
2021/08/21 01:10:00;;;;;;;9.38;5.38;;;;;;;19.31;100.00;96495.03;4946923;28;20463;-53
2021/08/21 01:12:29;;;;;;;8.80;5.45;;;;;;;18.99;100.00;96496.50;4946973;28;20083;-54
2021/08/21 01:14:57;;;;;;;6.93;5.43;;;;;;;18.71;100.00;96496.47;4942687;28;20071;-48
2021/08/21 01:17:26;;;;;;;7.07;5.22;;;;;;;19.34;100.00;96491.13;4946968;28;20078;-53
2021/08/21 01:19:54;;;;;;;8.20;5.97;;;;;;;19.14;100.00;96491.03;4947336;28;20102;-53
2021/08/21 01:22:26;;;;;;;8.30;5.90;;;;;;;19.41;100.00;96489.31;4949114;28;20087;-51
2021/08/21 01:24:56;;;;;;;7.90;5.97;;;;;;;19.28;100.00;96492.75;4943015;28;20102;-48
2021/08/21 01:27:27;;;;;;;7.32;5.68;;;;;;;19.32;100.00;96498.53;4952156;28;20067;-51
2021/08/21 01:29:56;;;;;;;8.77;5.75;;;;;;;19.03;100.00;96507.59;4952317;28;20084;-48
2021/08/21 01:32:26;;;;;;;7.97;5.35;;;;;;;18.81;100.00;96502.34;4958161;28;20576;-48
2021/08/21 01:34:55;;;;;;;7.85;5.80;;;;;;;19.33;100.00;96500.16;4944354;28;20215;-49
2021/08/21 01:37:25;;;;;;;7.30;5.80;;;;;;;19.26;100.00;96502.81;4954162;28;20087;-49
2021/08/21 01:39:55;;;;;;;7.63;6.35;;;;;;;19.23;100.00;96499.72;4953230;28;20063;-49
2021/08/21 01:42:26;;;;;;;6.63;5.63;;;;;;;18.94;100.00;96502.44;4956131;28;20069;-53
2021/08/21 01:44:55;;;;;;;6.63;5.50;;;;;;;18.60;100.00;96502.38;4954151;28;20063;-52
2021/08/21 01:47:23;;;;;;;9.05;5.45;;;;;;;18.65;100.00;96500.78;4950588;28;20079;-49
2021/08/21 01:49:53;;;;;;;6.82;5.78;;;;;;;18.40;100.00;96502.19;4944543;28;20079;-50
2021/08/21 01:52:22;;;;;;;6.68;5.97;;;;;;;18.67;100.00;96503.25;4942793;28;20130;-51
2021/08/21 01:54:50;;;;;;;10.32;6.88;;;;;;;18.26;100.00;96509.28;4947264;28;20070;-49
2021/08/21 01:57:18;;;;;;;7.82;6.28;;;;;;;19.12;100.00;96507.25;4947086;28;20065;-50
2021/08/21 01:59:51;;;;;;;9.18;6.55;;;;;;;19.10;100.00;96503.16;4956254;28;20086;-49
2021/08/21 02:02:22;;;;;;;9.77;6.53;;;;;;;19.04;100.00;96499.41;4949549;28;20074;-51
2021/08/21 02:04:50;;;;;;;7.18;5.95;;;;;;;18.97;100.00;96499.38;4952982;28;20075;-53
2021/08/21 02:07:19;;;;;;;7.47;5.95;;;;;;;18.73;100.00;96497.97;4943265;28;20503;-51
2021/08/21 02:09:47;;;;;;;8.15;6.15;;;;;;;19.15;100.00;96496.19;4947880;28;20070;-47
2021/08/21 02:12:34;;;;;;;8.45;6.30;;;;;;;19.21;100.00;96490.06;4945910;29;20429;-49
2021/08/21 02:15:07;;;;;;;7.40;6.65;;;;;;;19.24;100.00;96496.84;4942893;28;20040;-47
2021/08/21 02:17:35;;;;;;;10.02;6.80;;;;;;;19.21;100.00;96494.56;4956493;28;20117;-52
2021/08/21 02:20:11;;;;;;;6.70;5.53;;;;;;;19.17;100.00;96504.84;4944612;28;20087;-49
2021/08/21 02:22:40;;;;;;;12.77;5.72;;;;;;;19.10;100.00;96498.63;4957902;28;20079;-54
2021/08/21 02:25:09;;;;;;;12.43;5.15;;;;;;;19.36;100.00;96497.94;4950898;28;20529;-51
2021/08/21 02:27:40;;;;;;;8.40;5.38;;;;;;;18.83;100.00;96499.50;4953818;28;20063;-52
2021/08/21 02:30:11;;;;;;;8.95;5.68;;;;;;;18.57;100.00;96503.56;4947529;28;20077;-48
2021/08/21 02:32:39;;;;;;;;;;;;;;;18.18;100.00;96504.06;4945487;28;20059;-51
2021/08/21 02:35:07;;;;;;;8.05;6.03;;;;;;;18.54;100.00;96501.28;4948092;28;20400;-49
2021/08/21 02:37:37;;;;;;;7.82;5.75;;;;;;;18.36;100.00;96507.09;4957294;28;20102;-48
2021/08/21 02:40:07;;;;;;;7.90;6.28;;;;;;;18.67;100.00;96490.72;4953600;28;20516;-49
2021/08/21 02:42:35;;;;;;;8.07;6.03;;;;;;;18.85;100.00;96503.59;4946987;28;20078;-48
2021/08/21 02:45:04;;;;;;;7.35;5.57;;;;;;;19.00;100.00;96500.84;4945356;28;20081;-54
2021/08/21 02:47:34;;;;;;;7.38;5.60;;;;;;;18.89;100.00;96499.53;4950455;28;20067;-47
2021/08/21 02:50:02;;;;;;;8.27;5.85;;;;;;;18.97;100.00;96499.38;4954754;28;20144;-49
2021/08/21 02:52:31;;;;;;;7.95;6.13;;;;;;;18.56;100.00;96493.09;4951369;28;20097;-49
2021/08/21 02:54:59;;;;;;;10.50;6.28;;;;;;;18.79;100.00;96499.06;4952261;28;20074;-53
2021/08/21 02:57:27;;;;;;;7.47;5.95;;;;;;;18.69;100.00;96494.03;4954807;28;20063;-48
2021/08/21 02:59:56;;;;;;;8.73;5.85;;;;;;;18.66;100.00;96501.59;4952608;28;20548;-52
2021/08/21 03:02:24;;;;;;;12.40;6.63;;;;;;;18.97;100.00;96491.34;4945785;28;20066;-52
2021/08/21 03:04:54;;;;;;;13.52;8.85;;;;;;;18.75;100.00;96495.09;4950252;28;20083;-54
2021/08/21 03:07:22;;;;;;;10.00;7.93;;;;;;;18.36;100.00;96496.41;4949451;28;20063;-51
2021/08/21 03:09:51;;;;;;;9.63;7.55;;;;;;;18.52;100.00;96495.34;4949627;28;20509;-53
2021/08/21 03:12:19;;;;;;;6.60;5.95;;;;;;;18.21;100.00;96493.84;4959716;28;20121;-49
2021/08/21 03:14:47;;;;;;;10.68;6.22;;;;;;;17.82;100.00;96499.59;4947653;28;20071;-48
2021/08/21 03:17:16;;;;;;;9.02;5.63;;;;;;;18.58;100.00;96499.91;4944477;28;20070;-52
2021/08/21 03:19:44;;;;;;;10.20;6.38;;;;;;;17.94;100.00;96506.09;4951607;28;20087;-47
2021/08/21 03:22:14;;;;;;;7.97;6.35;;;;;;;18.25;100.00;96508.44;4948185;28;20066;-53
2021/08/21 03:24:42;;;;;;;9.67;6.77;;;;;;;18.21;100.00;96503.69;4945615;28;20553;-51
2021/08/21 03:27:11;;;;;;;7.35;6.25;;;;;;;18.08;100.00;96504.38;4943519;28;20502;-54
2021/08/21 03:29:39;;;;;;;8.48;6.45;;;;;;;18.13;100.00;96504.63;4953023;28;20062;-50
2021/08/21 03:32:10;;;;;;;9.82;7.00;;;;;;;18.21;100.00;96509.84;4952967;28;20081;-50
2021/08/21 03:34:38;;;;;;;10.02;6.90;;;;;;;18.01;100.00;96508.84;4946217;28;20083;-53
2021/08/21 03:37:07;;;;;;;9.63;6.82;;;;;;;18.03;100.00;96504.13;4952154;28;20077;-50
2021/08/21 03:39:37;;;;;;;10.20;7.30;;;;;;;18.08;100.00;96507.06;4951023;28;20469;-54
2021/08/21 03:42:05;;;;;;;10.27;6.72;;;;;;;18.20;100.00;96510.88;4953139;28;20437;-49
2021/08/21 03:44:34;;;;;;;8.05;6.68;;;;;;;18.27;100.00;96506.44;4955463;28;20063;-55
2021/08/21 03:47:03;;;;;;;9.45;7.13;;;;;;;18.08;100.00;96511.56;4950910;28;20074;-51
2021/08/21 03:49:31;;;;;;;7.80;6.20;;;;;;;17.97;100.00;96507.56;4950677;28;20726;-51
2021/08/21 03:51:59;;;;;;;9.30;6.05;;;;;;;18.02;100.00;96508.63;4949465;28;20051;-52
2021/08/21 03:54:28;;;;;;;8.95;6.30;;;;;;;18.06;100.00;96514.41;4952175;28;20075;-48
2021/08/21 03:56:58;;;;;;;8.10;6.28;;;;;;;18.06;100.00;96506.41;4947974;28;20071;-48
2021/08/21 03:59:26;;;;;;;8.93;7.20;;;;;;;17.89;100.00;96505.81;4952623;28;20089;-50
2021/08/21 04:01:54;;;;;;;11.48;7.38;;;;;;;18.31;100.00;96504.19;4954431;28;20521;-50
2021/08/21 04:04:23;;;;;;;10.27;7.38;;;;;;;18.05;100.00;96510.09;4952068;28;20470;-55
2021/08/21 04:06:51;;;;;;;11.82;8.80;;;;;;;17.71;100.00;96513.41;4945273;28;20477;-54
2021/08/21 04:09:20;;;;;;;11.05;7.80;;;;;;;18.23;100.00;96506.97;4949672;28;20497;-51
2021/08/21 04:11:48;;;;;;;11.18;8.35;;;;;;;17.76;100.00;96513.72;4950289;28;20066;-49
2021/08/21 04:14:18;;;;;;;11.13;7.93;;;;;;;17.60;100.00;96512.03;4948026;28;20067;-51
2021/08/21 04:16:46;;;;;;;9.80;7.40;;;;;;;17.39;100.00;96504.81;4955455;28;20075;-52
2021/08/21 04:19:14;;;;;;;8.80;6.90;;;;;;;17.63;100.00;96510.84;4946500;28;21063;-48
2021/08/21 04:21:43;;;;;;;14.10;7.72;;;;;;;18.09;100.00;96510.53;4949015;28;20107;-53
2021/08/21 04:24:11;;;;;;;12.48;7.30;;;;;;;18.13;100.00;96509.97;4945111;28;20079;-53
2021/08/21 04:26:39;;;;;;;8.50;6.53;;;;;;;18.45;100.00;96515.81;4951716;28;20067;-49
2021/08/21 04:29:10;;;;;;;8.95;6.10;;;;;;;18.38;100.00;96514.94;4951307;28;20078;-52
2021/08/21 04:31:39;;;;;;;7.72;6.18;;;;;;;18.57;100.00;96516.09;4945767;28;20079;-50
2021/08/21 04:34:08;;;;;;;8.43;6.18;;;;;;;18.17;100.00;96521.94;4945191;28;20070;-49
2021/08/21 04:36:36;;;;;;;10.23;5.88;;;;;;;18.29;100.00;96516.06;4952538;28;20071;-52
2021/08/21 04:39:05;;;;;;;7.63;6.07;;;;;;;18.49;100.00;96517.06;4947872;28;20067;-49
2021/08/21 04:41:33;;;;;;;11.07;6.72;;;;;;;18.48;100.00;96513.59;4945429;28;20474;-53
2021/08/21 04:44:04;;;;;;;7.63;6.50;;;;;;;18.52;100.00;96523.88;4958817;28;20079;-48
2021/08/21 04:46:34;;;;;;;7.32;6.22;;;;;;;17.89;100.00;96518.34;4945199;28;20477;-47
2021/08/21 04:49:04;;;;;;;;;;;;;;;18.17;100.00;96531.75;4949019;28;20071;-47
2021/08/21 04:51:32;;;;;;;10.13;6.20;;;;;;;18.39;100.00;96532.59;4943465;28;19965;-48
2021/08/21 04:54:00;;;;;;;9.63;7.03;;;;;;;18.35;100.00;96526.00;4953903;28;20070;-49
2021/08/21 04:56:29;;;;;;;9.27;7.25;;;;;;;18.46;100.00;96536.97;4946908;28;20073;-52
2021/08/21 04:58:57;;;;;;;9.88;7.88;;;;;;;18.80;100.00;96531.94;4948604;28;20083;-52
2021/08/21 05:01:25;;;;;;;9.82;6.90;;;;;;;19.79;100.00;96535.19;4952627;28;20555;-48
2021/08/21 05:03:54;;;;;;;6.65;6.05;;;;;;;20.39;100.00;96541.50;4948033;28;20759;-51
2021/08/21 05:06:24;;;;;;;9.38;6.18;;;;;;;21.30;100.00;96531.97;4942756;28;20069;-55
2021/08/21 05:08:52;;;;;;;7.05;5.72;;;;;;;21.48;100.00;96536.72;4946521;28;20167;-48
2021/08/21 05:11:20;;;;;;;9.63;5.93;;;;;;;21.94;100.00;96538.38;4954585;28;20069;-53
2021/08/21 05:13:49;;;;;;;6.38;5.35;;;;;;;22.48;95.39;96545.13;4948823;28;20105;-52
2021/08/21 05:16:17;;;;;;;7.40;5.30;;;;;;;21.92;100.00;96543.97;4952724;28;20074;-50
2021/08/21 05:18:48;;;;;;;7.53;5.55;;;;;;;21.83;100.00;96547.13;4937412;28;20066;-51
2021/08/21 05:21:26;;;;;;;7.32;5.15;;;;;;;22.91;89.48;96547.03;4954025;28;20071;-48
2021/08/21 05:23:56;;;;;;;7.32;5.70;;;;;;;23.64;78.94;96549.03;4948215;28;20064;-50
2021/08/21 05:26:26;;;;;;;13.52;5.75;;;;;;;23.99;75.88;96553.84;4951524;28;21617;-49
2021/08/21 05:28:54;;;;;;;6.60;5.03;;;;;;;24.44;72.43;96550.75;4948669;28;20482;-49
2021/08/21 05:31:24;;;;;;;6.22;5.05;;;;;;;24.93;67.81;96554.13;4950764;28;20541;-54
2021/08/21 05:33:52;;;;;;;7.25;5.03;;;;;;;24.71;69.79;96560.09;4943052;28;20071;-56
2021/08/21 05:36:21;;;;;;;6.35;5.05;;;;;;;23.72;81.31;96556.03;4943120;28;20067;-49
2021/08/21 05:38:50;;;;;;;6.28;5.45;;;;;;;23.48;86.15;96552.34;4949273;28;20071;-48
2021/08/21 05:41:19;;;;;;;6.50;5.15;;;;;;;23.22;93.52;96552.38;4942978;28;20067;-54
2021/08/21 05:43:48;;;;;;;8.55;5.38;;;;;;;23.16;95.94;96555.97;4951533;28;20571;-48
2021/08/21 05:46:16;;;;;;;6.03;5.20;;;;;;;23.07;99.38;96551.09;4953863;28;20070;-51
2021/08/21 05:48:44;;;;;;;7.03;5.90;;;;;;;22.92;100.00;96556.78;4943201;28;20083;-55
2021/08/21 05:51:13;;;;;;;6.47;5.72;;;;;;;22.79;100.00;96560.41;4940407;28;20583;-52
2021/08/21 05:53:41;;;;;;;7.57;5.90;;;;;;;22.59;100.00;96557.84;4952679;28;20070;-57
2021/08/21 05:56:09;;;;;;;6.53;5.93;;;;;;;22.19;100.00;96562.66;4942424;28;20508;-53
2021/08/21 05:58:39;;;;;;;7.18;6.47;;;;;;;22.17;100.00;96564.75;4949627;28;20090;-48
2021/08/21 06:01:07;;;;;;;8.35;6.88;;;;;;;22.57;100.00;96570.66;4947436;28;20073;-51
2021/08/21 06:03:36;;;;;;;8.40;6.80;;;;;;;22.16;100.00;96571.13;4944581;28;20087;-52
2021/08/21 06:06:04;;;;;;;8.30;7.32;;;;;;;22.63;100.00;96571.69;4951865;28;20461;-50
2021/08/21 06:08:33;;;;;;;8.05;7.25;;;;;;;22.82;100.00;96564.50;4952300;28;20602;-49
2021/08/21 06:11:01;;;;;;;9.93;7.95;;;;;;;22.63;100.00;96574.38;4950069;28;20102;-48
2021/08/21 06:13:30;;;;;;;9.48;8.15;;;;;;;23.11;100.00;96579.19;4948304;28;20087;-51
2021/08/21 06:16:00;;;;;;;9.90;8.38;;;;;;;23.41;100.00;96576.63;4952298;28;20074;-50
2021/08/21 06:18:28;;;;;;;10.05;8.73;;;;;;;21.58;100.00;96585.41;4946863;28;20513;-52
2021/08/21 06:20:56;;;;;;;12.07;9.45;;;;;;;22.68;100.00;96577.25;4948054;28;20071;-54
2021/08/21 06:23:25;;;;;;;9.50;8.20;;;;;;;22.66;100.00;96572.06;4953390;28;20058;-51
2021/08/21 06:25:53;;;;;;;11.25;9.00;;;;;;;21.89;100.00;96579.31;4950160;28;20104;-47
2021/08/21 06:28:25;;;;;;;10.63;8.48;;;;;;;22.48;100.00;96578.19;4953059;28;20210;-56
2021/08/21 06:30:54;;;;;;;10.65;9.20;;;;;;;22.23;100.00;96571.94;4946763;28;20047;-50
2021/08/21 06:33:24;;;;;;;11.43;9.05;;;;;;;22.09;100.00;96578.38;4944715;28;20077;-48
2021/08/21 06:35:52;;;;;;;12.32;9.52;;;;;;;22.65;100.00;96575.81;4943404;28;20063;-50
2021/08/21 06:38:20;;;;;;;11.02;8.48;;;;;;;22.47;100.00;96573.88;4956952;28;20070;-52
2021/08/21 06:40:50;;;;;;;11.07;8.55;;;;;;;22.51;100.00;96576.94;4951617;28;20506;-51
2021/08/21 06:43:19;;;;;;;12.68;8.55;;;;;;;22.32;100.00;96577.88;4968913;28;20051;-50
2021/08/21 06:45:47;;;;;;;10.93;8.38;;;;;;;23.25;100.00;96577.19;4948953;28;20066;-49
2021/08/21 06:48:15;;;;;;;9.57;8.25;;;;;;;23.51;100.00;96566.16;4949238;28;20081;-51
2021/08/21 06:50:45;;;;;;;9.88;8.68;;;;;;;23.66;100.00;96569.28;4945889;28;20175;-53
2021/08/21 06:53:15;;;;;;;9.23;8.07;;;;;;;24.40;100.00;96571.97;4943315;28;20082;-47
2021/08/21 06:55:43;;;;;;;9.03;8.13;;;;;;;23.77;100.00;96578.53;4960545;28;20067;-54
2021/08/21 06:58:11;;;;;;;10.57;8.35;;;;;;;24.60;100.00;96569.78;4946842;28;20523;-50
2021/08/21 07:00:43;;;;;;;9.07;7.88;;;;;;;24.25;100.00;96572.31;4948040;28;20093;-49
2021/08/21 07:03:12;;;;;;;10.82;8.38;;;;;;;23.42;100.00;96581.78;4948756;28;20077;-50
2021/08/21 07:05:41;;;;;;;9.88;8.40;;;;;;;23.02;100.00;96584.03;4952064;28;20058;-52
2021/08/21 07:08:11;;;;;;;9.93;8.20;;;;;;;23.31;100.00;96579.81;4947922;28;20083;-50
2021/08/21 07:10:40;;;;;;;10.55;9.45;;;;;;;23.44;100.00;96584.25;4959107;28;20071;-50
2021/08/21 07:13:09;;;;;;;12.43;8.80;;;;;;;23.90;100.00;96581.06;4946805;28;20449;-49
2021/08/21 07:15:37;;;;;;;10.30;8.07;;;;;;;24.45;100.00;96582.03;4951146;28;20637;-48
2021/08/21 07:18:06;;;;;;;10.80;8.05;;;;;;;25.21;100.00;96583.16;4950520;28;20067;-55
2021/08/21 07:20:34;;;;;;;9.07;8.18;;;;;;;25.83;99.24;96583.47;4949555;28;20066;-54
2021/08/21 07:23:02;;;;;;;10.57;8.05;;;;;;;26.26;94.48;96574.88;4943632;28;20083;-50
2021/08/21 07:25:32;;;;;;;11.75;8.40;;;;;;;25.77;99.81;96585.22;4951120;28;20470;-49
2021/08/21 07:28:01;;;;;;;9.35;8.35;;;;;;;26.01;98.91;96582.47;4941313;28;20082;-50
2021/08/21 07:30:29;;;;;;;13.52;8.45;;;;;;;25.84;97.96;96584.28;4945326;28;20067;-56
2021/08/21 07:32:58;;;;;;;9.38;7.90;;;;;;;25.52;100.00;96584.66;4950997;28;20078;-50
2021/08/21 07:35:26;;;;;;;10.38;8.10;;;;;;;25.77;100.00;96581.69;4945917;28;20063;-52
2021/08/21 07:37:55;;;;;;;13.45;8.65;;;;;;;26.28;95.59;96580.03;4959304;28;20100;-53
2021/08/21 07:40:23;;;;;;;10.50;8.18;;;;;;;25.39;100.00;96583.03;4954091;28;20079;-53
2021/08/21 07:42:53;;;;;;;9.55;8.55;;;;;;;25.00;100.00;96582.63;4947350;28;20074;-48
2021/08/21 07:45:22;;;;;;;11.55;8.48;;;;;;;25.18;100.00;96583.63;4951436;28;20575;-48
2021/08/21 07:47:51;;;;;;;12.18;8.70;;;;;;;26.86;93.53;96575.44;4957792;28;20063;-53
2021/08/21 07:50:21;;;;;;;10.38;8.68;;;;;;;26.30;94.72;96577.13;4962054;28;20062;-54
2021/08/21 07:52:49;;;;;;;12.38;8.25;;;;;;;27.19;87.95;96580.06;4955977;28;20078;-50
2021/08/21 07:55:17;;;;;;;12.02;8.25;;;;;;;27.02;89.81;96581.94;4963973;28;20076;-53
2021/08/21 07:57:46;;;;;;;10.73;8.23;;;;;;;26.43;95.92;96584.94;4945773;28;20078;-53
2021/08/21 08:00:17;;;;;;;11.02;8.50;;;;;;;26.14;98.79;96584.91;4949675;28;20054;-54
2021/08/21 08:02:45;;;;;;;9.35;8.35;;;;;;;26.62;94.50;96589.09;4943577;28;20066;-51
2021/08/21 08:05:14;;;;;;;12.38;7.85;;;;;;;26.98;94.36;96597.84;4956450;28;20198;-51
2021/08/21 08:07:43;;;;;;;9.73;8.10;;;;;;;27.58;86.36;96580.09;4948582;28;20520;-55
2021/08/21 08:10:11;;;;;;;10.18;8.00;;;;;;;27.92;77.79;96581.66;4953183;28;20071;-55
2021/08/21 08:12:40;;;;;;;9.18;7.57;;;;;;;28.41;74.97;96588.22;4949204;28;20082;-54
2021/08/21 08:15:09;;;;;;;12.25;8.40;;;;;;;27.83;82.91;96593.19;4954563;28;20062;-50
2021/08/21 08:17:39;;;;;;;11.43;8.30;;;;;;;26.96;88.09;96600.78;4942337;28;20074;-49
2021/08/21 08:20:09;;;;;;;11.98;8.63;;;;;;;26.81;91.15;96592.41;4952672;28;20078;-55
2021/08/21 08:22:37;;;;;;;12.73;8.63;;;;;;;27.63;85.34;96591.81;4955939;28;20074;-50
2021/08/21 08:25:06;;;;;;;10.10;7.88;;;;;;;27.18;90.00;96592.75;4950134;28;20090;-50
2021/08/21 08:27:35;;;;;;;11.85;8.02;;;;;;;28.22;77.57;96596.66;4945053;28;20069;-49
2021/08/21 08:30:05;;;;;;;9.82;8.05;;;;;;;26.93;84.92;96598.56;4952017;28;20067;-47
2021/08/21 08:32:33;;;;;;;9.68;7.10;;;;;;;27.94;78.36;96592.22;4949767;28;20065;-48
2021/08/21 08:35:03;;;;;;;9.98;7.53;;;;;;;28.18;79.17;96598.22;4950135;28;20231;-54
2021/08/21 08:37:32;;;;;;;;;;;;;;;28.08;74.49;96598.09;4954582;28;20446;-52
2021/08/21 08:40:00;;;;;;;9.07;7.75;;;;;;;28.55;70.43;96598.41;4943839;28;19969;-56
2021/08/21 08:42:29;;;;;;;10.50;7.43;;;;;;;29.18;66.73;96595.19;4951306;28;20073;-50
2021/08/21 08:44:57;;;;;;;8.32;7.45;;;;;;;27.31;75.59;96601.63;4949664;28;20047;-54
2021/08/21 08:47:26;;;;;;;9.82;7.70;;;;;;;27.56;73.22;96591.16;4954090;28;20166;-51
2021/08/21 08:49:54;;;;;;;9.45;7.72;;;;;;;28.26;70.28;96602.41;4951447;28;20075;-53
2021/08/21 08:52:24;;;;;;;10.18;7.78;;;;;;;28.29;67.46;96602.72;4950970;28;20477;-52
2021/08/21 08:54:52;;;;;;;11.93;9.30;;;;;;;27.62;82.54;96601.00;4951686;28;20071;-49
2021/08/21 08:57:34;;;;;;;12.32;8.63;;;;;;;28.78;70.08;96601.88;4947282;28;20075;-54
2021/08/21 09:00:03;;;;;;;10.95;9.43;;;;;;;28.72;73.95;96594.75;4946148;28;20079;-50
2021/08/21 09:02:34;;;;;;;12.02;9.27;;;;;;;27.96;74.40;96598.25;4948614;28;20086;-53
2021/08/21 09:05:05;;;;;;;11.70;9.45;;;;;;;28.66;70.95;96602.03;4956306;28;20083;-47
2021/08/21 09:07:45;;;;;;;11.50;9.55;;;;;;;29.47;63.90;96593.78;4943542;28;20063;-54
2021/08/21 09:10:19;;;;;;;11.38;9.07;;;;;;;30.31;60.11;96604.84;4947473;28;20073;-49
2021/08/21 09:12:49;;;;;;;11.05;9.73;;;;;;;29.01;65.52;96598.03;4943955;28;20073;-55
2021/08/21 09:15:22;;;;;;;12.63;9.43;;;;;;;29.69;65.62;96598.28;4945140;28;20062;-52
2021/08/21 09:18:10;;;;;;;10.70;8.95;;;;;;;29.65;65.50;96592.56;4952970;28;20156;-50
2021/08/21 09:20:58;;;;;;;11.38;9.40;;;;;;;28.75;67.93;96596.97;4957073;28;20091;-53
2021/08/21 09:23:30;;;;;;;10.73;8.73;;;;;;;28.07;76.94;96594.56;4945416;28;20070;-52
2021/08/21 09:26:06;;;;;;;11.02;8.88;;;;;;;28.56;68.95;96593.78;4947441;28;20070;-49
2021/08/21 09:28:36;;;;;;;14.65;9.82;;;;;;;29.37;61.74;96590.19;4953102;28;20083;-57
2021/08/21 09:31:07;;;;;;;10.27;9.17;;;;;;;29.23;70.24;96587.09;4945469;28;20537;-55
2021/08/21 09:33:36;;;;;;;10.45;9.00;;;;;;;28.85;70.13;96592.44;4941419;28;20067;-56
2021/08/21 09:36:05;;;;;;;14.95;9.45;;;;;;;30.56;58.33;96585.03;4953401;28;20058;-51
2021/08/21 09:38:35;;;;;;;15.73;9.88;;;;;;;30.46;55.30;96588.59;4945425;28;20054;-50
2021/08/21 09:41:05;;;;;;;10.50;9.05;;;;;;;29.12;66.61;96588.91;4949074;28;20059;-51
2021/08/21 09:43:35;;;;;;;11.60;9.52;;;;;;;30.32;56.38;96584.72;4951384;28;20090;-50
2021/08/21 09:46:13;;;;;;;11.00;9.27;;;;;;;31.31;53.39;96579.94;4950764;28;20067;-51
2021/08/21 09:49:11;;;;;;;10.45;8.82;;;;;;;29.99;57.85;96589.47;4947498;28;20478;-50
2021/08/21 09:51:42;;;;;;;12.38;9.48;;;;;;;28.54;62.41;96591.34;4901197;29;20076;-53
2021/08/21 09:54:13;;;;;;;12.05;9.63;;;;;;;28.45;67.49;96584.72;4935996;28;20071;-52
2021/08/21 09:56:42;;;;;;;11.30;9.40;;;;;;;30.04;57.27;96584.88;4949044;28;20085;-48
2021/08/21 09:59:11;;;;;;;12.50;8.52;;;;;;;31.16;54.62;96578.06;4946849;28;20562;-52
2021/08/21 10:01:40;;;;;;;11.88;8.07;;;;;;;31.55;51.20;96582.94;4949977;28;20063;-49
2021/08/21 10:04:08;;;;;;;9.90;8.25;;;;;;;31.00;51.57;96577.22;4947631;28;20078;-54
2021/08/21 10:06:38;;;;;;;8.95;8.05;;;;;;;30.75;51.40;96578.00;4947264;28;20062;-49
2021/08/21 10:09:09;;;;;;;;;;;;;;;29.57;56.95;96590.31;4948413;28;20481;-52
2021/08/21 10:11:38;;;;;;;10.23;8.77;;;;;;;30.07;56.16;96583.50;4950546;28;19960;-54
2021/08/21 10:14:07;;;;;;;;;;;;;;;30.25;53.58;96580.34;4947266;28;20085;-58
2021/08/21 10:16:37;;;;;;;12.15;9.13;;;;;;;29.49;57.08;96575.31;4944598;28;19957;-55
2021/08/21 10:19:05;;;;;;;;;;;;;;;30.79;52.21;96568.22;4945482;28;20070;-54
2021/08/21 10:21:33;;;;;;;11.65;10.07;;;;;;;30.68;50.83;96578.25;4947072;28;19973;-52
2021/08/21 10:24:02;;;;;;;10.63;9.52;;;;;;;30.77;50.44;96566.88;4946630;28;20081;-53
2021/08/21 10:26:34;;;;;;;14.15;9.85;;;;;;;30.70;52.25;96570.66;4943833;28;20093;-55
2021/08/21 10:29:11;;;;;;;11.50;9.30;;;;;;;30.73;52.11;96561.94;4947601;28;20086;-50
2021/08/21 10:31:41;;;;;;;15.52;10.52;;;;;;;31.17;49.22;96563.34;4946872;28;20086;-52
2021/08/21 10:34:11;;;;;;;13.85;9.10;;;;;;;30.34;50.44;96568.94;4943791;28;20580;-48
2021/08/21 10:36:51;;;;;;;10.85;9.00;;;;;;;31.73;46.25;96568.72;4942025;28;20063;-52
2021/08/21 10:39:22;;;;;;;12.77;10.10;;;;;;;30.86;50.14;96574.22;4948687;28;20090;-51
2021/08/21 10:41:53;;;;;;;10.68;9.57;;;;;;;31.49;50.87;96564.94;4943061;28;20075;-48
2021/08/21 10:44:43;;;;;;;10.35;8.95;;;;;;;31.14;52.03;96562.00;4944870;28;20481;-51
2021/08/21 10:47:36;;;;;;;10.70;9.05;;;;;;;31.75;48.77;96560.25;4948519;28;20086;-53
2021/08/21 10:50:29;;;;;;;10.40;8.77;;;;;;;30.73;50.42;96561.94;4941397;28;20086;-53
2021/08/21 10:52:59;;;;;;;16.60;9.60;;;;;;;30.42;51.79;96558.38;4946500;28;20043;-47
2021/08/21 10:55:29;;;;;;;12.30;9.60;;;;;;;31.26;47.23;96563.59;4947839;28;20075;-53
2021/08/21 10:58:06;;;;;;;9.70;8.25;;;;;;;30.07;53.94;96563.66;4945292;28;20074;-51
2021/08/21 11:01:06;;;;;;;11.02;8.77;;;;;;;30.34;48.63;96572.47;4948438;28;20070;-51
2021/08/21 11:03:45;;;;;;;11.68;8.95;;;;;;;31.27;51.08;96568.78;4944512;28;20078;-49
2021/08/21 11:06:15;;;;;;;8.93;7.75;;;;;;;31.36;47.96;96561.72;4945210;28;20079;-50
2021/08/21 11:09:07;;;;;;;;;;;;;;;30.08;48.32;96562.59;4951196;28;20473;-51
2021/08/21 11:11:40;;;;;;;14.93;8.05;;;;;;;31.21;47.03;96561.69;4936683;28;19957;-54
2021/08/21 11:14:10;;;;;;;9.60;8.00;;;;;;;31.01;47.42;96553.56;4942831;28;20555;-54
2021/08/21 11:16:50;;;;;;;13.13;8.80;;;;;;;29.93;53.24;96557.88;4945858;28;20153;-50
2021/08/21 11:19:39;;;;;;;10.10;8.70;;;;;;;29.71;56.56;96564.31;4957529;28;20079;-51
2021/08/21 11:22:19;;;;;;;9.63;8.30;;;;;;;30.38;51.25;96551.81;4944176;28;20530;-53
2021/08/21 11:25:07;;;;;;;;;;;;;;;30.68;47.23;96555.66;4946485;28;20086;-52
2021/08/21 11:27:45;;;;;;;8.95;7.68;;;;;;;31.20;46.57;96551.88;4946421;28;19962;-55
2021/08/21 11:30:27;;;;;;;9.85;7.45;;;;;;;30.23;47.00;96558.03;4942093;28;20117;-51
2021/08/21 11:33:14;;;;;;;9.30;7.32;;;;;;;31.68;45.19;96539.53;4947006;28;20081;-53
2021/08/21 11:35:51;;;;;;;12.70;8.77;;;;;;;31.37;45.37;96547.00;4946243;28;20473;-53
2021/08/21 11:38:27;;;;;;;11.38;8.70;;;;;;;31.36;45.69;96550.81;4943259;28;20761;-50
2021/08/21 11:40:57;;;;;;;8.77;7.35;;;;;;;31.63;45.84;96544.22;4947380;28;20071;-54